Time;durP1;ratioP1;P1;durP2;ratioP2;P2;SDS_P1;SDS_P2;PMS_P1;PMS_P2;Temp;Humidity;BMP_temperature;BMP_pressure;BME280_temperature;BME280_humidity;BME280_pressure;Samples;Min_cycle;Max_cycle;Signal;HPM_P1;HPM_P2
2023/04/21 00:00:26;;;;;;;7.03;6.18;;;;;;;;;;5042996;28;20096;-62
2023/04/21 00:02:52;;;;;;;7.80;6.88;;;;;;;;;;5042793;28;20037;-63
2023/04/21 00:05:18;;;;;;;8.25;7.30;;;;;;;;;;5042480;28;20486;-63
2023/04/21 00:07:44;;;;;;;9.18;8.25;;;;;;;;;;5040305;28;20057;-63
2023/04/21 00:10:11;;;;;;;10.02;7.95;;;;;;;;;;5043377;28;20048;-63
2023/04/21 00:12:37;;;;;;;7.10;6.40;;;;;;;;;;5042216;28;20483;-63
2023/04/21 00:15:04;;;;;;;7.93;6.53;;;;;;;;;;5044220;28;20044;-61
2023/04/21 00:17:30;;;;;;;7.05;6.28;;;;;;;;;;5047891;28;20045;-61
2023/04/21 00:19:57;;;;;;;8.30;6.50;;;;;;;;;;5047021;28;20043;-61
2023/04/21 00:22:23;;;;;;;8.40;6.75;;;;;;;;;;5041671;28;20044;-61
2023/04/21 00:24:49;;;;;;;6.88;6.18;;;;;;;;;;5046805;28;20049;-61
2023/04/21 00:27:15;;;;;;;7.10;5.10;;;;;;;;;;5047269;28;20127;-61
2023/04/21 00:29:41;;;;;;;6.20;5.13;;;;;;;;;;5046620;28;20442;-61
2023/04/21 00:32:08;;;;;;;6.95;5.93;;;;;;;;;;5046818;28;20045;-61
2023/04/21 00:34:35;;;;;;;8.40;6.38;;;;;;;;;;5046869;28;20403;-61
2023/04/21 00:37:01;;;;;;;9.70;8.57;;;;;;;;;;5045447;28;20048;-61
2023/04/21 00:39:27;;;;;;;9.52;8.48;;;;;;;;;;5047030;28;20505;-61
2023/04/21 00:41:53;;;;;;;10.43;8.35;;;;;;;;;;5045976;28;20090;-61
2023/04/21 00:44:19;;;;;;;11.50;8.75;;;;;;;;;;5045609;28;20047;-61
2023/04/21 00:46:47;;;;;;;10.75;8.65;;;;;;;;;;5047235;28;20041;-61
2023/04/21 00:49:13;;;;;;;6.97;5.90;;;;;;;;;;5044259;28;20571;-61
2023/04/21 00:51:40;;;;;;;7.53;6.53;;;;;;;;;;5045427;28;20060;-61
2023/04/21 00:54:07;;;;;;;6.78;5.88;;;;;;;;;;5046629;28;20566;-61
2023/04/21 00:56:33;;;;;;;7.28;5.97;;;;;;;;;;5044632;28;20063;-61
2023/04/21 00:59:00;;;;;;;6.18;5.57;;;;;;;;;;5045041;28;20060;-61
2023/04/21 01:01:30;;;;;;;9.43;6.88;;;;;;;;;;5045326;28;20060;-61
2023/04/21 01:04:00;;;;;;;8.82;7.60;;;;;;;;;;5045551;28;20051;-61
2023/04/21 01:06:31;;;;;;;12.30;8.65;;;;;;;;;;5046611;28;20077;-61
2023/04/21 01:08:57;;;;;;;11.38;8.70;;;;;;;;;;5044713;28;20369;-61
2023/04/21 01:11:23;;;;;;;13.00;9.07;;;;;;;;;;5046933;28;20103;-61
2023/04/21 01:13:53;;;;;;;12.30;9.40;;;;;;;;;;5044595;28;20110;-61
2023/04/21 01:16:20;;;;;;;13.05;9.40;;;;;;;;;;5046506;28;20060;-62
2023/04/21 01:18:46;;;;;;;10.85;8.68;;;;;;;;;;5045307;28;20048;-61
2023/04/21 01:21:13;;;;;;;8.02;7.22;;;;;;;;;;5045199;28;20503;-61
2023/04/21 01:23:42;;;;;;;9.40;8.35;;;;;;;;;;5045719;28;20060;-61
2023/04/21 01:26:09;;;;;;;11.90;8.75;;;;;;;;;;5045778;28;20048;-61
2023/04/21 01:28:35;;;;;;;13.35;9.57;;;;;;;;;;5046520;28;20060;-61
2023/04/21 01:31:01;;;;;;;12.27;9.48;;;;;;;;;;5043811;28;20419;-61
2023/04/21 01:33:27;;;;;;;11.93;8.80;;;;;;;;;;5045995;28;20045;-61
2023/04/21 01:35:54;;;;;;;9.85;8.65;;;;;;;;;;5046198;28;20052;-61
2023/04/21 01:38:20;;;;;;;12.10;9.15;;;;;;;;;;5045252;28;20033;-61
2023/04/21 01:40:48;;;;;;;11.75;8.70;;;;;;;;;;5044287;28;20048;-61
2023/04/21 01:43:14;;;;;;;11.55;9.00;;;;;;;;;;5045128;28;20071;-61
2023/04/21 01:45:40;;;;;;;11.45;9.30;;;;;;;;;;5043918;28;20183;-61
2023/04/21 01:48:06;;;;;;;13.15;10.23;;;;;;;;;;5045452;28;20037;-63
2023/04/21 01:50:32;;;;;;;12.88;9.50;;;;;;;;;;5044548;28;20049;-60
2023/04/21 01:52:58;;;;;;;15.68;9.55;;;;;;;;;;5044386;28;20194;-60
2023/04/21 01:55:24;;;;;;;15.07;10.63;;;;;;;;;;5045466;28;20064;-60
2023/04/21 01:57:50;;;;;;;14.73;10.70;;;;;;;;;;5043736;28;20669;-60
2023/04/21 02:00:16;;;;;;;14.60;10.23;;;;;;;;;;5044799;28;20491;-60
2023/04/21 02:02:42;;;;;;;11.77;9.55;;;;;;;;;;5044416;28;20037;-60
2023/04/21 02:05:08;;;;;;;10.30;8.73;;;;;;;;;;5043601;28;20154;-60
2023/04/21 02:07:34;;;;;;;11.32;8.60;;;;;;;;;;5044891;28;20069;-60
2023/04/21 02:10:00;;;;;;;8.75;7.88;;;;;;;;;;5045647;28;20080;-60
2023/04/21 02:12:26;;;;;;;8.25;7.38;;;;;;;;;;5044200;28;20072;-60
2023/04/21 02:14:52;;;;;;;10.15;7.43;;;;;;;;;;5042892;28;20065;-60
2023/04/21 02:17:18;;;;;;;10.88;8.20;;;;;;;;;;5043820;28;20045;-60
2023/04/21 02:19:46;;;;;;;8.60;7.55;;;;;;;;;;5044799;28;20060;-60
2023/04/21 02:22:12;;;;;;;10.07;8.95;;;;;;;;;;5043643;28;20525;-60
2023/04/21 02:24:38;;;;;;;11.23;8.18;;;;;;;;;;5044743;28;20670;-60
2023/04/21 02:27:04;;;;;;;12.63;10.07;;;;;;;;;;5042745;28;20791;-60
2023/04/21 02:29:30;;;;;;;14.10;10.35;;;;;;;;;;5043604;28;20529;-63
2023/04/21 02:31:56;;;;;;;12.52;8.77;;;;;;;;;;5044398;28;20088;-63
2023/04/21 02:34:22;;;;;;;9.18;8.00;;;;;;;;;;5044480;28;20126;-63
2023/04/21 02:36:49;;;;;;;13.82;8.60;;;;;;;;;;5044343;28;20083;-63
2023/04/21 02:39:15;;;;;;;9.20;8.30;;;;;;;;;;5045174;28;20056;-63
2023/04/21 02:41:41;;;;;;;14.68;10.27;;;;;;;;;;5044784;28;20076;-63
2023/04/21 02:44:07;;;;;;;10.13;8.75;;;;;;;;;;5044551;28;20045;-63
2023/04/21 02:46:33;;;;;;;21.15;11.75;;;;;;;;;;5044916;28;20044;-63
2023/04/21 02:48:59;;;;;;;11.68;8.73;;;;;;;;;;5042177;28;20056;-63
2023/04/21 02:51:25;;;;;;;13.98;10.63;;;;;;;;;;5043163;28;20503;-63
2023/04/21 02:53:51;;;;;;;14.50;10.13;;;;;;;;;;5042834;28;20067;-63
2023/04/21 02:56:17;;;;;;;13.20;9.90;;;;;;;;;;5042377;28;20568;-63
2023/04/21 02:58:43;;;;;;;14.20;10.13;;;;;;;;;;5045075;28;20135;-63
2023/04/21 03:01:09;;;;;;;14.10;9.90;;;;;;;;;;5042589;28;20055;-63
2023/04/21 03:03:35;;;;;;;12.00;9.32;;;;;;;;;;5044062;28;20221;-63
2023/04/21 03:06:03;;;;;;;13.25;9.48;;;;;;;;;;5043853;28;20048;-62
2023/04/21 03:08:29;;;;;;;13.20;11.27;;;;;;;;;;5044419;28;20063;-63
2023/04/21 03:10:56;;;;;;;12.10;9.13;;;;;;;;;;5043751;28;20047;-63
2023/04/21 03:13:23;;;;;;;14.38;9.65;;;;;;;;;;5044655;28;20045;-63
2023/04/21 03:15:49;;;;;;;10.40;8.27;;;;;;;;;;5044010;28;20052;-63
2023/04/21 03:18:15;;;;;;;11.43;9.02;;;;;;;;;;5044201;28;20079;-63
2023/04/21 03:20:41;;;;;;;12.23;9.63;;;;;;;;;;5044939;28;20045;-63
2023/04/21 03:23:07;;;;;;;11.18;9.23;;;;;;;;;;5041817;28;20045;-63
2023/04/21 03:25:33;;;;;;;10.77;9.43;;;;;;;;;;5042865;28;20441;-63
2023/04/21 03:27:59;;;;;;;12.25;9.77;;;;;;;;;;5043835;28;20057;-63
2023/04/21 03:30:25;;;;;;;10.05;8.48;;;;;;;;;;5043441;28;20049;-62
2023/04/21 03:32:51;;;;;;;10.57;7.90;;;;;;;;;;5041911;28;20065;-63
2023/04/21 03:35:18;;;;;;;10.23;8.70;;;;;;;;;;5043958;28;20171;-63
2023/04/21 03:37:44;;;;;;;11.30;7.78;;;;;;;;;;5042559;28;20440;-63
2023/04/21 03:40:10;;;;;;;9.25;7.85;;;;;;;;;;5042078;28;20059;-63
2023/04/21 03:42:36;;;;;;;9.80;7.80;;;;;;;;;;5040464;28;20459;-63
2023/04/21 03:45:05;;;;;;;16.52;9.57;;;;;;;;;;5042664;28;20044;-63
2023/04/21 03:47:31;;;;;;;8.93;7.65;;;;;;;;;;5044461;28;20045;-63
2023/04/21 03:49:57;;;;;;;11.65;8.43;;;;;;;;;;5042450;28;20041;-63
2023/04/21 03:52:24;;;;;;;12.70;9.85;;;;;;;;;;5043171;28;20075;-63
2023/04/21 03:54:50;;;;;;;11.55;8.38;;;;;;;;;;5042143;28;20502;-63
2023/04/21 03:57:16;;;;;;;11.57;8.60;;;;;;;;;;5044019;28;20044;-63
2023/04/21 03:59:43;;;;;;;10.77;8.50;;;;;;;;;;5043790;28;20041;-63
2023/04/21 04:02:09;;;;;;;9.95;7.63;;;;;;;;;;5043283;28;20121;-63
2023/04/21 04:04:35;;;;;;;11.30;7.68;;;;;;;;;;5043724;28;20521;-63
2023/04/21 04:07:01;;;;;;;14.50;9.25;;;;;;;;;;5042683;28;20155;-63
2023/04/21 04:09:28;;;;;;;12.48;7.97;;;;;;;;;;5043662;28;20045;-63
2023/04/21 04:11:54;;;;;;;7.63;6.70;;;;;;;;;;5040080;28;20061;-63
2023/04/21 04:14:20;;;;;;;11.30;7.40;;;;;;;;;;5041758;28;20422;-63
2023/04/21 04:16:46;;;;;;;10.13;6.43;;;;;;;;;;5043029;28;20052;-63
2023/04/21 04:19:12;;;;;;;9.65;7.22;;;;;;;;;;5042736;28;20174;-62
2023/04/21 04:21:38;;;;;;;12.93;8.77;;;;;;;;;;5041492;28;20426;-63
2023/04/21 04:24:04;;;;;;;10.80;8.25;;;;;;;;;;5040607;28;20049;-63
2023/04/21 04:26:34;;;;;;;10.15;7.70;;;;;;;;;;5043122;28;20041;-63
2023/04/21 04:29:01;;;;;;;6.60;5.88;;;;;;;;;;5042883;28;20076;-63
2023/04/21 04:31:29;;;;;;;12.80;8.50;;;;;;;;;;5042488;28;20048;-63
2023/04/21 04:33:55;;;;;;;10.00;7.07;;;;;;;;;;5040828;28;20534;-63
2023/04/21 04:36:21;;;;;;;9.30;7.40;;;;;;;;;;5041970;28;20128;-63
2023/04/21 04:38:47;;;;;;;7.82;7.00;;;;;;;;;;5041727;28;20547;-63
2023/04/21 04:41:14;;;;;;;10.40;6.50;;;;;;;;;;5043243;28;20128;-62
2023/04/21 04:43:41;;;;;;;8.68;7.72;;;;;;;;;;5042587;28;20072;-63
2023/04/21 04:46:11;;;;;;;7.53;6.63;;;;;;;;;;5039137;28;20045;-63
2023/04/21 04:48:37;;;;;;;6.15;5.63;;;;;;;;;;5037817;28;20052;-63
2023/04/21 04:51:03;;;;;;;9.77;6.95;;;;;;;;;;5041509;28;20480;-63
2023/04/21 04:53:29;;;;;;;9.38;6.82;;;;;;;;;;5043470;28;20045;-63
2023/04/21 04:55:57;;;;;;;8.90;7.32;;;;;;;;;;5042201;28;20534;-63
2023/04/21 04:58:23;;;;;;;12.30;8.93;;;;;;;;;;5041880;28;20041;-63
2023/04/21 05:00:49;;;;;;;8.35;7.00;;;;;;;;;;5043970;28;20056;-63
2023/04/21 05:03:15;;;;;;;7.22;6.53;;;;;;;;;;5046473;28;20045;-63
2023/04/21 05:05:41;;;;;;;9.10;7.05;;;;;;;;;;5045981;28;20045;-63
2023/04/21 05:08:07;;;;;;;8.13;6.28;;;;;;;;;;5046438;28;20037;-63
2023/04/21 05:10:34;;;;;;;6.22;5.63;;;;;;;;;;5045497;28;20558;-63
2023/04/21 05:13:00;;;;;;;6.13;5.53;;;;;;;;;;5044652;28;20053;-63
2023/04/21 05:15:26;;;;;;;7.07;5.80;;;;;;;;;;5046798;28;20052;-63
2023/04/21 05:17:52;;;;;;;8.25;6.40;;;;;;;;;;5043980;28;20392;-63
2023/04/21 05:20:18;;;;;;;10.57;6.85;;;;;;;;;;5045116;28;20041;-63
2023/04/21 05:22:44;;;;;;;8.70;7.63;;;;;;;;;;5043675;28;20048;-63
2023/04/21 05:25:14;;;;;;;8.15;6.70;;;;;;;;;;5046166;28;20049;-63
2023/04/21 05:27:41;;;;;;;8.70;6.25;;;;;;;;;;5046599;28;20082;-62
2023/04/21 05:30:07;;;;;;;5.75;5.25;;;;;;;;;;5044117;28;20040;-62
2023/04/21 05:32:33;;;;;;;10.85;6.43;;;;;;;;;;5046321;28;20059;-63
2023/04/21 05:34:59;;;;;;;6.45;5.53;;;;;;;;;;5045734;28;20053;-62
2023/04/21 05:37:25;;;;;;;8.20;6.72;;;;;;;;;;5044336;28;20480;-63
2023/04/21 05:39:52;;;;;;;8.15;7.32;;;;;;;;;;5044274;28;20095;-61
2023/04/21 05:42:18;;;;;;;9.35;7.25;;;;;;;;;;5044530;28;20045;-61
2023/04/21 05:44:44;;;;;;;11.02;8.15;;;;;;;;;;5044554;28;20813;-62
2023/04/21 05:47:10;;;;;;;10.23;8.45;;;;;;;;;;5045521;28;20140;-62
2023/04/21 05:49:36;;;;;;;10.80;7.47;;;;;;;;;;5044748;28;20160;-62
2023/04/21 05:52:02;;;;;;;9.13;7.00;;;;;;;;;;5044565;28;20053;-62
2023/04/21 05:54:28;;;;;;;13.98;8.00;;;;;;;;;;5045763;28;20759;-62
2023/04/21 05:56:54;;;;;;;9.35;7.35;;;;;;;;;;5045376;28;20033;-63
2023/04/21 05:59:20;;;;;;;9.45;6.75;;;;;;;;;;5045002;28;20119;-62
2023/04/21 06:01:46;;;;;;;9.00;7.35;;;;;;;;;;5041782;28;20582;-63
2023/04/21 06:04:12;;;;;;;9.02;6.72;;;;;;;;;;5046392;28;20082;-63
2023/04/21 06:06:38;;;;;;;10.45;7.00;;;;;;;;;;5044434;28;20076;-63
2023/04/21 06:09:05;;;;;;;9.85;7.75;;;;;;;;;;5045034;28;20132;-63
2023/04/21 06:11:32;;;;;;;12.07;8.23;;;;;;;;;;5042935;28;20088;-63
2023/04/21 06:13:58;;;;;;;13.20;8.57;;;;;;;;;;5042181;28;20045;-63
2023/04/21 06:16:25;;;;;;;9.15;7.53;;;;;;;;;;5043984;28;20053;-63
2023/04/21 06:18:51;;;;;;;10.20;6.93;;;;;;;;;;5044149;28;20049;-63
2023/04/21 06:21:17;;;;;;;11.05;8.18;;;;;;;;;;5043857;28;20044;-62
2023/04/21 06:23:43;;;;;;;10.05;8.10;;;;;;;;;;5045650;28;20057;-63
2023/04/21 06:26:09;;;;;;;13.00;7.78;;;;;;;;;;5043931;28;20574;-63
2023/04/21 06:28:36;;;;;;;12.13;9.32;;;;;;;;;;5043769;28;20475;-63
2023/04/21 06:31:02;;;;;;;11.60;7.90;;;;;;;;;;5044699;28;20796;-63
2023/04/21 06:33:29;;;;;;;11.40;8.18;;;;;;;;;;5043098;28;20561;-63
2023/04/21 06:35:55;;;;;;;13.85;9.32;;;;;;;;;;5044663;28;20053;-63
2023/04/21 06:38:21;;;;;;;16.02;8.13;;;;;;;;;;5043366;28;20068;-63
2023/04/21 06:40:47;;;;;;;13.50;7.97;;;;;;;;;;5042727;28;20056;-63
2023/04/21 06:43:13;;;;;;;9.77;6.70;;;;;;;;;;5044235;28;20128;-63
2023/04/21 06:45:40;;;;;;;9.45;7.57;;;;;;;;;;5043877;28;20056;-63
2023/04/21 06:48:06;;;;;;;9.98;7.40;;;;;;;;;;5039450;28;20553;-63
2023/04/21 06:50:32;;;;;;;8.48;6.88;;;;;;;;;;5037725;28;20187;-63
2023/04/21 06:52:58;;;;;;;9.40;7.47;;;;;;;;;;5042595;28;20048;-63
2023/04/21 06:55:24;;;;;;;7.32;5.80;;;;;;;;;;5044013;28;20611;-63
2023/04/21 06:57:50;;;;;;;13.30;7.57;;;;;;;;;;5042571;28;20621;-63
2023/04/21 07:00:16;;;;;;;12.73;8.02;;;;;;;;;;5041505;28;20144;-64
2023/04/21 07:02:42;;;;;;;9.15;7.35;;;;;;;;;;5032224;28;20056;-63
2023/04/21 07:05:08;;;;;;;8.63;7.70;;;;;;;;;;5040315;28;20033;-63
2023/04/21 07:07:34;;;;;;;11.50;7.57;;;;;;;;;;5043952;28;20044;-63
2023/04/21 07:10:00;;;;;;;11.15;7.90;;;;;;;;;;5043416;28;20049;-63
2023/04/21 07:12:26;;;;;;;9.77;7.63;;;;;;;;;;5033751;28;20061;-63
2023/04/21 07:14:52;;;;;;;11.35;7.97;;;;;;;;;;5039399;28;20041;-63
2023/04/21 07:17:18;;;;;;;11.65;8.18;;;;;;;;;;5027549;28;20054;-63
2023/04/21 07:19:44;;;;;;;8.57;7.05;;;;;;;;;;5033516;28;20505;-63
2023/04/21 07:22:10;;;;;;;12.65;7.57;;;;;;;;;;5041987;28;20060;-63
2023/04/21 07:24:36;;;;;;;13.60;7.80;;;;;;;;;;5037533;28;20049;-63
2023/04/21 07:27:02;;;;;;;11.00;7.72;;;;;;;;;;5037440;28;20051;-64
2023/04/21 07:29:28;;;;;;;13.18;7.82;;;;;;;;;;5024434;28;20052;-66
2023/04/21 07:31:57;;;;;;;11.00;7.22;;;;;;;;;;5024273;28;20115;-65
2023/04/21 07:34:23;;;;;;;12.48;8.10;;;;;;;;;;5024936;28;20060;-65
2023/04/21 07:36:50;;;;;;;14.23;7.68;;;;;;;;;;5023901;28;20045;-71
2023/04/21 07:39:16;;;;;;;9.65;7.60;;;;;;;;;;5023649;28;20053;-64
2023/04/21 07:41:42;;;;;;;11.80;7.78;;;;;;;;;;5036675;28;20049;-64
2023/04/21 07:44:08;;;;;;;10.02;7.38;;;;;;;;;;5042361;28;20049;-64
2023/04/21 07:46:34;;;;;;;10.25;7.30;;;;;;;;;;5043092;28;20183;-65
2023/04/21 07:49:00;;;;;;;10.60;7.97;;;;;;;;;;5043772;28;20052;-64
2023/04/21 07:51:26;;;;;;;9.90;7.22;;;;;;;;;;5042449;28;20057;-64
2023/04/21 07:53:53;;;;;;;8.43;6.60;;;;;;;;;;5040766;28;20380;-64
2023/04/21 07:56:19;;;;;;;12.75;7.38;;;;;;;;;;5036099;28;20055;-64
2023/04/21 07:58:45;;;;;;;12.80;7.63;;;;;;;;;;5030595;28;20045;-64
2023/04/21 08:01:11;;;;;;;10.52;6.47;;;;;;;;;;5037873;28;20132;-64
2023/04/21 08:03:37;;;;;;;8.38;7.03;;;;;;;;;;5033526;28;20128;-64
2023/04/21 08:06:03;;;;;;;10.80;7.32;;;;;;;;;;5042048;28;20056;-63
2023/04/21 08:08:30;;;;;;;8.52;7.13;;;;;;;;;;5044253;28;20131;-63
2023/04/21 08:10:55;;;;;;;9.80;7.38;;;;;;;;;;5044119;28;20079;-63
2023/04/21 08:13:24;;;;;;;11.50;7.65;;;;;;;;;;5042170;28;20045;-62
2023/04/21 08:15:53;;;;;;;10.63;7.20;;;;;;;;;;5043818;28;20114;-63
2023/04/21 08:18:19;;;;;;;8.35;6.97;;;;;;;;;;5042589;28;20148;-62
2023/04/21 08:20:48;;;;;;;8.48;6.32;;;;;;;;;;5041594;28;20472;-62
2023/04/21 08:23:14;;;;;;;7.88;6.60;;;;;;;;;;5041870;28;20716;-62
2023/04/21 08:25:40;;;;;;;11.15;8.00;;;;;;;;;;5042031;28;20044;-62
2023/04/21 08:28:06;;;;;;;13.55;7.95;;;;;;;;;;5041026;28;20102;-62
2023/04/21 08:30:32;;;;;;;11.73;8.45;;;;;;;;;;5042697;28;20041;-62
2023/04/21 08:32:58;;;;;;;7.13;5.50;;;;;;;;;;5040088;28;20064;-63
2023/04/21 08:35:24;;;;;;;11.73;7.20;;;;;;;;;;5041617;28;20045;-62
2023/04/21 08:37:50;;;;;;;10.00;6.60;;;;;;;;;;5045793;28;20053;-63
2023/04/21 08:40:16;;;;;;;7.07;5.57;;;;;;;;;;5047198;28;20163;-62
2023/04/21 08:42:42;;;;;;;6.80;5.82;;;;;;;;;;5045485;28;20045;-62
2023/04/21 08:45:09;;;;;;;10.73;7.38;;;;;;;;;;5046690;28;20056;-62
2023/04/21 08:47:37;;;;;;;12.35;7.43;;;;;;;;;;5045373;28;20048;-62
2023/04/21 08:50:03;;;;;;;7.55;6.65;;;;;;;;;;5047011;28;20048;-62
2023/04/21 08:52:29;;;;;;;11.77;6.57;;;;;;;;;;5047305;28;20147;-62
2023/04/21 08:54:55;;;;;;;8.27;6.10;;;;;;;;;;5044980;28;20175;-62
2023/04/21 08:57:21;;;;;;;11.05;6.43;;;;;;;;;;5046158;28;20060;-62
2023/04/21 08:59:47;;;;;;;7.65;6.82;;;;;;;;;;5047317;28;20045;-62
2023/04/21 09:02:18;;;;;;;13.43;7.32;;;;;;;;;;5045950;28;20055;-62
2023/04/21 09:04:45;;;;;;;8.70;6.85;;;;;;;;;;5047815;28;20117;-61
2023/04/21 09:07:11;;;;;;;10.15;6.88;;;;;;;;;;5046006;28;20106;-62
2023/04/21 09:09:56;;;;;;;12.10;6.47;;;;;;;;;;5042229;28;20399;-61
2023/04/21 09:12:23;;;;;;;8.93;7.07;;;;;;;;;;5039428;28;20068;-62
2023/04/21 09:14:49;;;;;;;10.85;7.03;;;;;;;;;;5046107;28;20529;-61
2023/04/21 09:17:16;;;;;;;9.80;7.25;;;;;;;;;;5046151;28;20118;-62
2023/04/21 09:19:42;;;;;;;9.23;6.22;;;;;;;;;;5047367;28;20040;-61
2023/04/21 09:22:08;;;;;;;8.00;6.63;;;;;;;;;;5044513;28;20048;-61
2023/04/21 09:24:34;;;;;;;12.18;7.63;;;;;;;;;;5046883;28;20376;-61
2023/04/21 09:27:02;;;;;;;7.85;5.88;;;;;;;;;;5044777;28;20045;-62
2023/04/21 09:29:28;;;;;;;9.95;6.05;;;;;;;;;;5046300;28;20041;-61
2023/04/21 09:31:54;;;;;;;8.98;5.90;;;;;;;;;;5046403;28;20099;-62
2023/04/21 09:34:23;;;;;;;14.00;7.05;;;;;;;;;;5047015;28;20076;-62
2023/04/21 09:36:58;;;;;;;10.48;6.20;;;;;;;;;;5044004;28;20095;-62
2023/04/21 09:39:24;;;;;;;12.13;6.60;;;;;;;;;;5046660;28;20045;-62
2023/04/21 09:41:50;;;;;;;10.82;6.88;;;;;;;;;;5042559;28;20124;-62
2023/04/21 09:44:16;;;;;;;8.43;6.15;;;;;;;;;;5044186;28;20136;-62
2023/04/21 09:46:43;;;;;;;6.45;5.53;;;;;;;;;;5034943;28;20049;-62
2023/04/21 09:49:11;;;;;;;11.00;6.65;;;;;;;;;;5044954;28;20057;-62
2023/04/21 09:51:38;;;;;;;9.65;6.40;;;;;;;;;;5042186;28;20161;-62
2023/04/21 09:54:17;;;;;;;9.68;6.65;;;;;;;;;;5024215;28;20482;-62
2023/04/21 09:56:45;;;;;;;8.55;6.28;;;;;;;;;;5046291;28;20048;-62
2023/04/21 09:59:16;;;;;;;9.88;6.55;;;;;;;;;;5044383;28;20048;-61
2023/04/21 10:01:44;;;;;;;9.52;7.22;;;;;;;;;;5046526;28;20044;-62
2023/04/21 10:04:10;;;;;;;13.48;6.15;;;;;;;;;;5043732;28;20069;-62
2023/04/21 10:06:36;;;;;;;11.75;6.28;;;;;;;;;;5044199;28;20049;-62
2023/04/21 10:09:03;;;;;;;13.60;5.88;;;;;;;;;;5046109;28;20124;-62
2023/04/21 10:11:31;;;;;;;11.10;6.55;;;;;;;;;;5044935;28;20510;-62
2023/04/21 10:13:57;;;;;;;11.43;6.10;;;;;;;;;;5045506;28;20049;-62
2023/04/21 10:16:25;;;;;;;7.95;6.20;;;;;;;;;;5043931;28;20495;-62
2023/04/21 10:18:52;;;;;;;13.45;7.38;;;;;;;;;;5044737;28;20056;-62
2023/04/21 10:21:20;;;;;;;12.05;7.18;;;;;;;;;;5044556;28;20076;-62
2023/04/21 10:23:53;;;;;;;9.63;5.82;;;;;;;;;;5045490;28;20048;-62
2023/04/21 10:26:19;;;;;;;10.30;6.22;;;;;;;;;;5044664;28;20167;-62
2023/04/21 10:28:46;;;;;;;10.77;6.72;;;;;;;;;;5044934;28;20687;-62
2023/04/21 10:31:19;;;;;;;7.65;6.18;;;;;;;;;;5045167;28;20194;-62
2023/04/21 10:34:04;;;;;;;9.43;6.13;;;;;;;;;;5043245;28;20056;-62
2023/04/21 10:36:30;;;;;;;8.25;5.35;;;;;;;;;;5040232;28;20041;-62
2023/04/21 10:39:00;;;;;;;7.65;6.25;;;;;;;;;;5044584;28;20071;-62
2023/04/21 10:41:27;;;;;;;9.75;6.70;;;;;;;;;;5043045;28;20059;-62
2023/04/21 10:43:53;;;;;;;10.90;7.00;;;;;;;;;;5043705;28;20494;-62
2023/04/21 10:46:35;;;;;;;12.27;6.20;;;;;;;;;;5042941;28;20045;-62
2023/04/21 10:49:20;;;;;;;10.95;6.38;;;;;;;;;;5042892;28;20052;-62
2023/04/21 10:51:58;;;;;;;10.10;6.53;;;;;;;;;;5044472;28;20048;-62
2023/04/21 10:54:40;;;;;;;7.65;5.85;;;;;;;;;;5035135;28;20066;-62
2023/04/21 10:57:07;;;;;;;7.30;6.07;;;;;;;;;;5043944;28;20060;-62
2023/04/21 10:59:34;;;;;;;7.72;5.82;;;;;;;;;;5044554;28;20045;-62
2023/04/21 11:02:00;;;;;;;10.60;5.75;;;;;;;;;;5042065;28;20397;-63
2023/04/21 11:04:26;;;;;;;7.40;6.13;;;;;;;;;;5044753;28;20055;-63
2023/04/21 11:07:10;;;;;;;7.80;5.22;;;;;;;;;;5043148;28;20049;-63
2023/04/21 11:09:36;;;;;;;9.20;5.80;;;;;;;;;;5036165;28;20505;-63
2023/04/21 11:12:06;;;;;;;8.57;4.93;;;;;;;;;;5043789;28;20053;-63
2023/04/21 11:14:34;;;;;;;7.25;5.65;;;;;;;;;;5044246;28;20044;-62
2023/04/21 11:17:00;;;;;;;9.35;5.43;;;;;;;;;;5043926;28;20056;-62
2023/04/21 11:19:26;;;;;;;6.28;5.40;;;;;;;;;;5042639;28;20122;-62
2023/04/21 11:21:55;;;;;;;8.45;5.13;;;;;;;;;;5042046;28;20499;-62
2023/04/21 11:24:21;;;;;;;5.95;4.82;;;;;;;;;;5044048;28;20451;-62
2023/04/21 11:26:48;;;;;;;5.28;4.68;;;;;;;;;;5042339;28;20134;-62
2023/04/21 11:29:14;;;;;;;7.82;4.78;;;;;;;;;;5037197;28;20491;-62
2023/04/21 11:31:41;;;;;;;6.25;5.07;;;;;;;;;;5036831;28;20056;-62
2023/04/21 11:34:07;;;;;;;9.38;5.00;;;;;;;;;;5037725;28;20385;-62
2023/04/21 11:36:40;;;;;;;5.47;4.18;;;;;;;;;;5035718;28;20041;-63
2023/04/21 11:39:08;;;;;;;5.07;3.80;;;;;;;;;;5034264;28;20037;-63
2023/04/21 11:41:35;;;;;;;7.57;3.97;;;;;;;;;;5030380;28;20621;-63
2023/04/21 11:44:01;;;;;;;5.70;3.67;;;;;;;;;;5028698;28;20045;-63
2023/04/21 11:46:28;;;;;;;7.13;4.38;;;;;;;;;;5039074;28;20523;-63
2023/04/21 11:49:01;;;;;;;8.23;4.53;;;;;;;;;;5037464;28;20095;-62
2023/04/21 11:51:32;;;;;;;9.05;5.32;;;;;;;;;;5033325;28;20103;-63
2023/04/21 11:53:58;;;;;;;6.53;4.80;;;;;;;;;;5033820;28;20048;-62
2023/04/21 11:56:24;;;;;;;7.45;4.63;;;;;;;;;;5025901;28;20210;-62
2023/04/21 11:58:51;;;;;;;4.95;3.60;;;;;;;;;;5027141;28;20041;-63
2023/04/21 12:01:18;;;;;;;7.93;4.45;;;;;;;;;;5029027;28;20049;-62
2023/04/21 12:03:51;;;;;;;4.90;3.83;;;;;;;;;;5024394;28;20041;-62
2023/04/21 12:06:21;;;;;;;7.20;4.47;;;;;;;;;;5026932;28;20041;-62
2023/04/21 12:08:47;;;;;;;6.53;3.70;;;;;;;;;;5035548;28;20048;-62
2023/04/21 12:11:16;;;;;;;7.07;4.90;;;;;;;;;;5036188;28;20049;-62
2023/04/21 12:13:42;;;;;;;6.28;4.00;;;;;;;;;;5043793;28;20072;-63
2023/04/21 12:16:08;;;;;;;7.75;4.68;;;;;;;;;;5043466;28;20146;-63
2023/04/21 12:18:35;;;;;;;8.45;4.72;;;;;;;;;;5042908;28;20517;-64
2023/04/21 12:21:02;;;;;;;4.38;3.90;;;;;;;;;;5043108;28;20045;-64
2023/04/21 12:23:28;;;;;;;6.60;4.18;;;;;;;;;;5041407;28;20055;-63
2023/04/21 12:25:54;;;;;;;5.47;3.95;;;;;;;;;;5041224;28;20059;-63
2023/04/21 12:28:20;;;;;;;7.05;4.60;;;;;;;;;;5044162;28;20095;-63
2023/04/21 12:30:46;;;;;;;6.03;4.30;;;;;;;;;;5043182;28;20053;-63
2023/04/21 12:33:12;;;;;;;5.38;3.42;;;;;;;;;;5039565;28;20059;-63
2023/04/21 12:35:38;;;;;;;4.20;3.63;;;;;;;;;;5044753;28;20548;-63
2023/04/21 12:38:04;;;;;;;7.75;4.90;;;;;;;;;;5043162;28;20051;-62
2023/04/21 12:40:32;;;;;;;5.55;4.38;;;;;;;;;;5040382;28;20142;-62
2023/04/21 12:42:58;;;;;;;9.48;5.25;;;;;;;;;;5045653;28;20426;-63
2023/04/21 12:45:24;;;;;;;5.95;3.70;;;;;;;;;;5045272;28;20052;-64
2023/04/21 12:47:50;;;;;;;8.45;3.85;;;;;;;;;;5040923;28;20079;-63
2023/04/21 12:50:16;;;;;;;4.68;4.28;;;;;;;;;;5044096;28;20045;-63
2023/04/21 12:52:42;;;;;;;7.55;3.30;;;;;;;;;;5044927;28;20041;-63
2023/04/21 12:55:08;;;;;;;5.03;3.97;;;;;;;;;;5039270;28;20419;-63
2023/04/21 12:57:34;;;;;;;10.05;4.70;;;;;;;;;;5044019;28;20072;-63
2023/04/21 13:00:00;;;;;;;9.70;4.13;;;;;;;;;;5040757;28;20049;-63
2023/04/21 13:02:26;;;;;;;5.80;3.30;;;;;;;;;;5044057;28;20498;-63
2023/04/21 13:04:52;;;;;;;9.05;4.25;;;;;;;;;;5041939;28;20106;-62
2023/04/21 13:07:21;;;;;;;7.43;3.00;;;;;;;;;;5040959;28;20487;-62
2023/04/21 13:09:47;;;;;;;3.97;2.42;;;;;;;;;;5043064;28;20048;-62
2023/04/21 13:12:13;;;;;;;8.20;2.78;;;;;;;;;;5044072;28;20052;-62
2023/04/21 13:14:39;;;;;;;4.43;3.28;;;;;;;;;;5042621;28;20045;-62
2023/04/21 13:17:05;;;;;;;5.22;3.17;;;;;;;;;;5035246;28;20426;-62
2023/04/21 13:19:31;;;;;;;5.13;3.15;;;;;;;;;;5042586;28;20049;-62
2023/04/21 13:21:57;;;;;;;8.30;4.05;;;;;;;;;;5043102;28;20658;-62
2023/04/21 13:24:25;;;;;;;5.45;3.28;;;;;;;;;;5045328;28;20479;-62
2023/04/21 13:26:51;;;;;;;4.82;3.20;;;;;;;;;;5045652;28;20056;-61
2023/04/21 13:29:17;;;;;;;3.97;3.08;;;;;;;;;;5043309;28;20041;-62
2023/04/21 13:31:43;;;;;;;3.28;2.40;;;;;;;;;;5045982;28;20051;-63
2023/04/21 13:34:09;;;;;;;9.00;2.65;;;;;;;;;;5045024;28;20084;-62
2023/04/21 13:36:35;;;;;;;4.55;2.08;;;;;;;;;;5043550;28;20533;-63
2023/04/21 13:39:03;;;;;;;3.95;2.33;;;;;;;;;;5042991;28;20091;-63
2023/04/21 13:41:29;;;;;;;5.45;2.45;;;;;;;;;;5032953;28;20053;-62
2023/04/21 13:43:55;;;;;;;5.78;2.53;;;;;;;;;;5037067;28;20044;-62
2023/04/21 13:46:21;;;;;;;3.22;2.53;;;;;;;;;;5031704;28;20114;-63
2023/04/21 13:48:49;;;;;;;7.47;2.65;;;;;;;;;;5040093;28;20146;-62
2023/04/21 13:51:15;;;;;;;7.93;2.67;;;;;;;;;;5041849;28;20044;-62
2023/04/21 13:53:41;;;;;;;5.68;2.35;;;;;;;;;;5042512;28;20795;-62
2023/04/21 13:56:08;;;;;;;5.57;2.47;;;;;;;;;;5039925;28;20045;-62
2023/04/21 13:58:34;;;;;;;4.22;2.17;;;;;;;;;;5036993;28;20420;-62
2023/04/21 14:01:00;;;;;;;4.70;2.67;;;;;;;;;;5038235;28;20042;-62
2023/04/21 14:03:26;;;;;;;4.90;2.22;;;;;;;;;;5037560;28;20443;-62
2023/04/21 14:05:52;;;;;;;5.50;2.33;;;;;;;;;;5035286;28;20620;-63
2023/04/21 14:08:19;;;;;;;6.00;2.22;;;;;;;;;;5039413;28;20083;-62
2023/04/21 14:10:45;;;;;;;6.00;2.35;;;;;;;;;;5041256;28;20076;-62
2023/04/21 14:13:11;;;;;;;8.82;2.55;;;;;;;;;;5031447;28;20403;-62
2023/04/21 14:15:37;;;;;;;5.80;2.53;;;;;;;;;;5032297;28;20044;-62
2023/04/21 14:18:03;;;;;;;6.20;2.45;;;;;;;;;;5040453;28;20128;-62
2023/04/21 14:20:29;;;;;;;3.25;2.17;;;;;;;;;;5039433;28;20124;-61
2023/04/21 14:22:56;;;;;;;3.45;2.08;;;;;;;;;;5034853;28;20049;-62
2023/04/21 14:25:22;;;;;;;3.13;2.53;;;;;;;;;;5034159;28;20049;-61
2023/04/21 14:27:48;;;;;;;4.15;2.83;;;;;;;;;;5042439;28;20049;-62
2023/04/21 14:30:14;;;;;;;5.32;2.28;;;;;;;;;;5032867;28;20038;-64
2023/04/21 14:32:46;;;;;;;4.97;2.72;;;;;;;;;;5032177;28;20061;-62